createdAt,value
2019-01-18T00:01:41.552Z,60094.72
2019-01-18T00:04:07.666Z,60091.18
2019-01-18T00:06:33.789Z,60093.30
2019-01-18T00:08:59.918Z,60096.62
2019-01-18T00:11:26.039Z,60099.81
2019-01-18T00:13:52.283Z,60094.16
2019-01-18T00:16:18.409Z,60100.90
2019-01-18T00:18:44.550Z,60094.34
2019-01-18T00:21:10.661Z,60096.67
2019-01-18T00:23:36.899Z,60092.23
2019-01-18T00:26:03.118Z,60088.19
2019-01-18T00:28:29.353Z,60081.49
2019-01-18T00:30:55.580Z,60080.81
2019-01-18T00:33:21.822Z,60080.28
2019-01-18T00:35:47.939Z,60072.70
2019-01-18T00:38:14.073Z,60076.78
2019-01-18T00:40:40.308Z,60076.07
2019-01-18T00:43:06.539Z,60078.70
2019-01-18T00:45:32.771Z,60074.45
2019-01-18T00:47:58.908Z,60079.08
2019-01-18T00:50:25.026Z,60066.39
2019-01-18T00:52:51.171Z,60066.21
2019-01-18T00:58:31.534Z,60058.24
2019-01-18T01:00:57.654Z,60063.91
2019-01-18T01:03:23.897Z,60055.80
2019-01-18T01:05:50.107Z,60048.94
2019-01-18T01:08:16.335Z,60043.52
2019-01-18T01:10:42.454Z,60037.50
2019-01-18T01:13:08.692Z,60036.10
2019-01-18T01:15:34.813Z,60035.57
2019-01-18T01:18:00.926Z,60033.82
2019-01-18T01:20:27.157Z,60029.79
2019-01-18T01:22:53.275Z,60028.71
2019-01-18T01:25:19.511Z,60024.64
2019-01-18T01:28:27.033Z,60024.33
2019-01-18T01:30:53.274Z,60011.82
2019-01-18T01:33:19.493Z,60001.95
2019-01-18T01:35:45.620Z,60003.92
2019-01-18T01:38:11.740Z,60001.84
2019-01-18T01:40:37.974Z,60004.10
2019-01-18T01:43:04.097Z,59809.83
2019-01-18T01:45:30.234Z,60001.49
2019-01-18T01:47:56.451Z,59994.76
2019-01-18T01:51:03.991Z,59994.05
2019-01-18T01:53:30.259Z,59997.06
2019-01-18T01:55:56.390Z,59973.66
2019-01-18T01:58:22.511Z,59990.18
2019-01-18T02:00:48.735Z,59993.89
2019-01-18T02:03:14.856Z,60001.84
2019-01-18T02:05:40.990Z,60001.84
2019-01-18T02:08:07.110Z,60006.09
2019-01-18T02:11:14.647Z,60000.20
2019-01-18T02:13:40.890Z,60002.68
2019-01-18T02:16:07.113Z,60014.90
2019-01-18T02:18:33.235Z,59999.89
2019-01-18T02:20:59.466Z,59995.14
2019-01-18T02:23:25.591Z,59987.90
2019-01-18T02:25:51.722Z,59991.29
2019-01-18T02:28:17.841Z,59998.86
2019-01-18T02:30:43.972Z,59993.89
2019-01-18T02:33:10.090Z,59992.50
2019-01-18T02:35:36.221Z,59982.26
2019-01-18T02:38:02.443Z,59982.66
2019-01-18T02:40:28.571Z,59972.24
2019-01-18T02:42:54.684Z,59975.98
2019-01-18T02:46:02.228Z,59967.53
2019-01-18T02:48:28.370Z,59966.31
2019-01-18T02:50:54.504Z,59971.75
2019-01-18T02:53:20.636Z,59968.04
2019-01-18T02:55:46.767Z,59966.47
2019-01-18T02:58:12.884Z,59965.41
2019-01-18T03:00:39.014Z,59968.26
2019-01-18T03:05:52.830Z,59972.46
2019-01-18T03:08:18.947Z,59980.05
2019-01-18T03:10:45.075Z,59975.65
2019-01-18T03:13:11.203Z,59965.78
2019-01-18T03:15:37.430Z,59954.50
2019-01-18T03:18:03.562Z,59954.55
2019-01-18T03:20:29.788Z,59954.91
2019-01-18T03:22:55.912Z,59946.26
2019-01-18T03:28:36.247Z,59948.91
2019-01-18T03:31:02.489Z,59944.66
2019-01-18T03:33:28.619Z,59949.09
2019-01-18T03:35:54.764Z,59945.72
2019-01-18T03:38:20.883Z,59935.73
2019-01-18T03:40:46.999Z,59921.69
2019-01-18T03:43:13.127Z,59907.26
2019-01-18T03:45:39.243Z,59908.85
2019-01-18T03:48:05.370Z,59901.29
2019-01-18T03:50:31.580Z,59899.19
2019-01-18T03:52:57.738Z,59894.42
2019-01-18T03:55:23.953Z,59893.73
2019-01-18T03:57:50.191Z,59893.38
2019-01-18T04:03:30.350Z,59887.57
2019-01-18T04:05:56.568Z,59884.25
2019-01-18T04:08:22.710Z,59882.69
2019-01-18T04:10:48.944Z,59881.80
2019-01-18T04:13:15.176Z,59889.38
2019-01-18T04:15:41.285Z,59886.53
2019-01-18T04:18:07.420Z,59880.54
2019-01-18T04:20:33.635Z,59885.49
2019-01-18T04:22:59.865Z,59889.73
2019-01-18T04:25:45.837Z,59890.59
2019-01-18T04:28:11.986Z,59895.17
2019-01-18T04:30:38.105Z,59885.29
2019-01-18T04:33:04.238Z,59883.57
2019-01-18T04:35:30.358Z,59881.82
2019-01-18T04:37:56.594Z,59881.45
2019-01-18T04:41:04.130Z,59882.49
2019-01-18T04:43:30.360Z,59888.50
2019-01-18T04:45:56.484Z,59878.45
2019-01-18T04:48:22.618Z,59873.34
2019-01-18T04:50:48.839Z,59872.66
2019-01-18T04:53:15.023Z,59871.60
2019-01-18T04:55:41.132Z,59878.14
2019-01-18T04:58:07.356Z,59884.12
2019-01-18T05:00:40.202Z,59887.26
2019-01-18T05:03:01.606Z,59885.67
2019-01-18T05:05:27.848Z,59887.77
2019-01-18T05:07:53.970Z,59892.52
2019-01-18T05:11:01.508Z,59892.67
2019-01-18T05:13:27.644Z,59893.73
2019-01-18T05:15:53.901Z,59899.52
2019-01-18T05:18:20.114Z,59904.10
2019-01-18T05:20:46.233Z,59905.49
2019-01-18T05:23:12.465Z,59909.20
2019-01-18T05:25:38.594Z,59910.09
2019-01-18T05:28:04.810Z,59915.37
2019-01-18T05:30:30.937Z,59911.13
2019-01-18T05:32:57.054Z,59914.29
2019-01-18T05:35:23.291Z,59909.71
2019-01-18T05:37:49.503Z,59905.27
2019-01-18T05:40:57.037Z,59915.88
2019-01-18T05:43:23.179Z,59916.39
2019-01-18T05:45:49.407Z,59915.50
2019-01-18T05:48:15.627Z,59918.51
2019-01-18T05:50:41.855Z,59925.38
2019-01-18T05:55:55.698Z,59950.30
2019-01-18T05:58:21.907Z,59955.23
2019-01-18T06:03:21.876Z,59953.82
2019-01-18T06:08:22.050Z,59971.22
2019-01-18T06:10:48.194Z,59984.76
2019-01-18T06:13:14.413Z,59995.29
2019-01-18T06:15:40.755Z,60004.43
2019-01-18T06:18:06.863Z,60014.14
2019-01-18T06:20:32.991Z,60014.12
2019-01-18T06:22:59.105Z,60018.50
2019-01-18T06:25:25.238Z,60031.87
2019-01-18T06:27:51.363Z,60046.31
2019-01-18T06:31:01.787Z,60052.61
2019-01-18T06:33:27.031Z,60070.09
2019-01-18T06:35:53.165Z,60075.18
2019-01-18T06:38:19.279Z,60082.73
2019-01-18T06:43:23.075Z,60091.53
2019-01-18T06:45:49.209Z,60098.93
2019-01-18T06:51:03.041Z,60104.35
2019-01-18T06:53:29.154Z,60114.06
2019-01-18T06:55:55.283Z,60125.34
2019-01-18T06:58:21.503Z,60134.16
2019-01-18T07:00:47.614Z,60134.82
2019-01-18T07:03:13.852Z,60140.85
2019-01-18T07:05:40.069Z,60143.46
2019-01-18T07:08:06.201Z,60153.00
2019-01-18T07:10:32.417Z,60152.79
2019-01-18T07:12:58.544Z,60159.85
2019-01-18T07:15:24.763Z,60164.29
2019-01-18T07:17:50.995Z,60159.67
2019-01-18T07:20:58.527Z,60160.91
2019-01-18T07:23:24.796Z,60165.00
2019-01-18T07:25:50.917Z,60166.52
2019-01-18T07:28:17.065Z,60177.68
2019-01-18T07:30:43.284Z,60179.27
2019-01-18T07:33:09.510Z,60171.36
2019-01-18T07:35:35.634Z,60173.11
2019-01-18T07:38:01.778Z,60166.21
2019-01-18T07:40:27.885Z,60168.50
2019-01-18T07:42:54.135Z,60167.26
2019-01-18T07:46:01.668Z,60158.25
2019-01-18T07:48:27.823Z,60156.55
2019-01-18T07:50:54.038Z,60147.90
2019-01-18T07:53:20.174Z,60144.38
2019-01-18T07:55:46.291Z,60144.55
2019-01-18T07:58:12.422Z,60147.19
2019-01-18T08:00:38.542Z,60151.61
2019-01-18T08:03:04.700Z,60153.53
2019-01-18T08:05:30.917Z,60154.75
2019-01-18T08:10:50.600Z,60158.43
2019-01-18T08:13:23.659Z,60161.60
2019-01-18T08:15:49.781Z,60164.77
2019-01-18T08:18:15.910Z,60172.55
2019-01-18T08:20:42.037Z,60181.56
2019-01-18T08:23:08.180Z,60174.81
2019-01-18T08:25:34.352Z,60177.47
2019-01-18T08:28:00.467Z,60184.00
2019-01-18T08:31:08.014Z,60184.68
2019-01-18T08:33:34.255Z,60189.09
2019-01-18T08:36:00.373Z,60206.98
2019-01-18T08:38:26.513Z,60210.13
2019-01-18T08:40:52.744Z,60209.39
2019-01-18T08:43:20.207Z,60218.75
2019-01-18T08:46:08.684Z,60227.56
2019-01-18T08:48:34.819Z,60246.53
2019-01-18T08:51:00.938Z,60229.11
2019-01-18T08:53:27.059Z,60236.55
2019-01-18T08:55:53.290Z,60237.59
2019-01-18T08:58:19.412Z,60249.96
2019-01-18T09:00:45.546Z,60252.21
2019-01-18T09:03:11.765Z,60260.16
2019-01-18T09:05:37.898Z,60265.09
2019-01-18T09:08:04.115Z,60273.93
2019-01-18T09:10:51.797Z,60283.47
2019-01-18T09:13:18.511Z,60289.97
2019-01-18T09:15:46.212Z,60307.86
2019-01-18T09:18:12.330Z,60317.01
2019-01-18T09:20:38.567Z,60322.29
2019-01-18T09:23:04.778Z,60337.11
2019-01-18T09:25:30.910Z,60347.38
2019-01-18T09:27:57.226Z,60359.76
2019-01-18T09:30:45.007Z,60366.45
2019-01-18T09:33:11.226Z,60368.52
2019-01-18T09:35:37.357Z,60389.10
2019-01-18T09:38:44.901Z,60395.61
2019-01-18T09:41:11.130Z,60403.37
2019-01-18T09:43:37.251Z,60418.22
2019-01-18T09:46:03.399Z,60430.03
2019-01-18T09:48:29.517Z,60446.85
2019-01-18T09:50:55.645Z,60453.72
2019-01-18T09:53:21.761Z,60467.51
2019-01-18T09:55:47.891Z,60482.38
2019-01-18T09:58:14.107Z,60496.18
2019-01-18T10:00:40.238Z,60513.86
2019-01-18T10:03:06.450Z,60528.02
2019-01-18T10:05:32.682Z,60546.09
2019-01-18T10:07:58.908Z,60557.25
2019-01-18T10:10:25.021Z,60565.19
2019-01-18T10:12:51.246Z,60575.46
2019-01-18T10:15:38.840Z,60581.12
2019-01-18T10:21:05.611Z,60586.45
2019-01-18T10:23:31.731Z,60615.29
2019-01-18T10:25:57.968Z,60608.96
2019-01-18T10:28:24.107Z,60614.93
2019-01-18T10:30:50.220Z,60625.41
2019-01-18T10:33:16.475Z,60633.22
2019-01-18T10:35:42.606Z,60652.26
2019-01-18T10:38:08.736Z,60645.25
2019-01-18T10:40:34.847Z,60655.03
2019-01-18T10:43:01.080Z,60663.52
2019-01-18T10:45:27.295Z,60670.61
2019-01-18T10:47:53.534Z,60683.26
2019-01-18T10:53:33.318Z,60690.53
2019-01-18T10:55:59.508Z,60689.27
2019-01-18T10:58:25.634Z,60695.34
2019-01-18T11:00:51.761Z,60692.28
2019-01-18T11:03:17.886Z,60698.28
2019-01-18T11:05:44.008Z,60705.55
2019-01-18T11:08:10.240Z,60714.44
2019-01-18T11:10:36.357Z,60720.80
2019-01-18T11:13:02.586Z,60723.99
2019-01-18T11:15:28.706Z,60733.81
2019-01-18T11:23:29.721Z,60717.54
2019-01-18T11:25:55.934Z,60725.06
2019-01-18T11:28:22.087Z,60726.32
2019-01-18T11:30:48.198Z,60732.92
2019-01-18T11:33:14.359Z,60729.32
2019-01-18T11:35:40.478Z,60729.87
2019-01-18T11:38:06.695Z,60725.93
2019-01-18T11:40:32.947Z,60731.09
2019-01-18T11:42:59.181Z,60726.82
2019-01-18T11:45:25.295Z,60727.68
2019-01-18T11:47:51.440Z,60731.95
2019-01-18T11:50:37.323Z,60736.96
2019-01-18T11:53:03.458Z,60733.53
2019-01-18T11:55:29.681Z,60739.44
2019-01-18T11:57:55.837Z,60735.71
2019-01-18T12:03:35.351Z,60731.95
2019-01-18T12:06:01.566Z,60748.79
2019-01-18T12:08:27.811Z,60725.71
2019-01-18T12:10:53.924Z,60735.89
2019-01-18T12:13:20.061Z,60742.66
2019-01-18T12:15:46.173Z,60736.04
2019-01-18T12:18:12.303Z,60742.28
2019-01-18T12:20:38.438Z,60738.90
2019-01-18T12:23:04.646Z,60741.30
2019-01-18T12:25:30.879Z,60728.75
2019-01-18T12:27:56.999Z,60726.43
2019-01-18T12:30:42.981Z,60725.56
2019-01-18T12:33:09.222Z,60729.69
2019-01-18T12:35:35.357Z,60715.84
2019-01-18T12:38:01.471Z,60708.20
2019-01-18T12:40:27.609Z,60708.02
2019-01-18T12:42:53.926Z,60711.04
2019-01-18T12:46:01.472Z,60709.99
2019-01-18T12:48:27.603Z,60709.10
2019-01-18T12:50:53.741Z,60700.21
2019-01-18T12:53:19.851Z,60696.12
2019-01-18T12:55:45.989Z,60695.62
2019-01-18T12:58:12.226Z,60688.52
2019-01-18T13:00:38.364Z,60681.94
2019-01-18T13:03:04.582Z,60683.58
2019-01-18T13:06:12.132Z,60684.83
2019-01-18T13:08:38.499Z,60678.75
2019-01-18T13:11:04.687Z,60673.80
2019-01-18T13:13:30.807Z,60673.00
2019-01-18T13:16:38.371Z,60662.13
2019-01-18T13:19:04.521Z,60657.86
2019-01-18T13:21:30.652Z,60651.63
2019-01-18T13:23:56.776Z,60643.46
2019-01-18T13:26:23.019Z,60641.20
2019-01-18T13:28:49.231Z,60630.00
2019-01-18T13:31:15.362Z,60629.50
2019-01-18T13:33:41.481Z,60629.35
2019-01-18T13:41:35.918Z,60621.42
2019-01-18T13:47:09.641Z,60596.91
2019-01-18T13:49:35.761Z,60593.84
2019-01-18T13:52:01.990Z,60582.41
2019-01-18T13:54:28.206Z,60579.57
2019-01-18T13:56:54.440Z,60577.97
2019-01-18T13:59:20.664Z,60566.77
2019-01-18T14:01:46.801Z,60566.86
2019-01-18T14:04:12.915Z,60556.20
2019-01-18T14:06:39.147Z,60546.47
2019-01-18T14:09:46.677Z,60531.95
2019-01-18T14:12:12.923Z,60521.14
2019-01-18T14:17:26.760Z,60512.12
2019-01-18T14:19:52.875Z,60506.11
2019-01-18T14:22:19.008Z,60498.82
2019-01-18T14:24:45.128Z,60497.79
2019-01-18T14:27:11.359Z,60488.21
2019-01-18T14:29:37.486Z,60489.99
2019-01-18T14:32:03.617Z,60496.54
2019-01-18T14:34:29.863Z,60495.68
2019-01-18T14:36:55.995Z,60486.99
2019-01-18T14:39:22.219Z,60473.34
2019-01-18T14:41:48.454Z,60467.51
2019-01-18T14:44:14.681Z,60467.87
2019-01-18T14:46:40.894Z,60464.33
2019-01-18T14:49:07.152Z,60459.55
2019-01-18T14:51:33.375Z,60449.62
2019-01-18T14:53:59.504Z,60452.15
2019-01-18T14:56:25.619Z,60449.47
2019-01-18T14:58:51.992Z,60446.97
2019-01-18T15:01:18.210Z,60456.43
2019-01-18T15:03:44.438Z,60448.25
2019-01-18T15:06:10.788Z,60442.96
2019-01-18T15:08:36.921Z,60436.57
2019-01-18T15:11:03.138Z,60427.18
2019-01-18T15:13:29.377Z,60415.20
2019-01-18T15:15:55.638Z,60412.20
2019-01-18T15:18:21.794Z,60411.51
2019-01-18T15:20:47.918Z,60410.62
2019-01-18T15:23:14.037Z,60406.52
2019-01-18T15:25:40.168Z,60396.09
2019-01-18T15:28:06.288Z,60396.27
2019-01-18T15:31:13.828Z,60409.22
2019-01-18T15:33:40.064Z,60406.01
2019-01-18T15:36:06.180Z,60399.48
2019-01-18T15:38:32.402Z,60388.69
2019-01-18T15:40:58.734Z,60377.73
2019-01-18T15:43:25.058Z,60376.49
2019-01-18T15:45:51.296Z,60376.12
2019-01-18T15:48:17.544Z,60223.32
2019-01-18T15:50:43.790Z,60379.33
2019-01-18T15:53:09.904Z,60366.65
2019-01-18T15:58:29.988Z,60360.06
2019-01-18T16:00:56.222Z,60363.39
2019-01-18T16:03:22.442Z,60370.66
2019-01-18T16:05:48.574Z,60372.26
2019-01-18T16:10:43.363Z,60372.44
2019-01-18T16:13:09.485Z,60359.85
2019-01-18T16:16:17.020Z,60366.09
2019-01-18T16:18:43.146Z,60360.93
2019-01-18T16:21:09.289Z,60350.38
2019-01-18T16:23:35.507Z,60336.22
2019-01-18T16:26:01.744Z,60324.78
2019-01-18T16:28:27.958Z,60313.65
2019-01-18T16:30:54.096Z,60312.43
2019-01-18T16:36:34.165Z,60291.75
2019-01-18T16:39:00.295Z,60285.88
2019-01-18T16:42:07.841Z,60291.25
2019-01-18T16:44:33.957Z,60289.65
2019-01-18T16:47:00.095Z,60278.14
2019-01-18T16:49:26.223Z,60274.46
2019-01-18T16:51:52.354Z,60270.57
2019-01-18T16:54:18.471Z,60281.37
2019-01-18T16:56:44.711Z,60268.14
2019-01-18T16:59:10.832Z,60258.77
2019-01-18T17:01:36.968Z,60258.92
2019-01-18T17:07:17.011Z,60230.71
2019-01-18T17:09:43.232Z,60147.37
2019-01-18T17:12:09.363Z,60234.47
2019-01-18T17:14:35.479Z,60227.56
2019-01-18T17:17:01.608Z,60229.49
2019-01-18T17:19:27.823Z,60231.24
2019-01-18T17:21:53.953Z,60234.79
2019-01-18T17:24:20.175Z,60229.87
2019-01-18T17:26:46.305Z,60222.96
2019-01-18T17:29:12.424Z,60214.67
2019-01-18T17:31:38.552Z,60205.84
2019-01-18T17:34:04.887Z,60209.95
2019-01-18T17:36:31.104Z,60207.61
2019-01-18T17:39:38.670Z,60196.14
2019-01-18T17:45:45.437Z,60188.41
2019-01-18T17:48:51.181Z,60193.26
2019-01-18T17:58:13.052Z,60174.56
2019-01-18T18:04:19.984Z,60154.75
2019-01-18T18:07:27.571Z,60150.49
2019-01-18T18:16:29.541Z,60148.25
2019-01-18T18:19:35.290Z,60138.37
2019-01-18T18:22:41.039Z,60129.72
2019-01-18T18:25:46.788Z,60131.14
2019-01-18T18:28:54.336Z,60145.08
2019-01-18T18:31:42.131Z,60154.14
2019-01-18T18:37:48.408Z,60141.61
2019-01-18T18:43:54.896Z,60126.37
2019-01-18T18:47:00.628Z,60119.33
2019-01-18T18:50:08.192Z,60115.86
2019-01-18T18:53:13.956Z,60113.37
2019-01-18T18:56:19.692Z,60105.62
2019-01-18T18:59:25.435Z,60096.62
2019-01-18T19:02:31.160Z,60099.46
2019-01-18T19:05:36.908Z,60106.84
2019-01-18T19:08:42.632Z,60105.84
2019-01-18T19:11:48.372Z,60089.91
2019-01-18T19:14:54.116Z,60084.10
2019-01-18T19:17:59.856Z,60092.23
2019-01-18T19:24:06.344Z,60103.87
2019-01-18T19:27:13.960Z,60105.84
2019-01-18T19:33:33.024Z,60093.66
2019-01-18T19:36:38.764Z,60080.40
2019-01-18T19:39:44.507Z,60074.12
2019-01-18T19:45:51.244Z,60067.07
2019-01-18T19:48:39.030Z,60065.48
2019-01-18T19:51:44.785Z,60062.31
2019-01-18T19:54:50.524Z,60059.14
2019-01-18T20:00:49.987Z,60061.60
2019-01-18T20:03:55.710Z,60077.26
2019-01-18T20:07:01.448Z,60073.54
2019-01-18T20:19:22.268Z,60069.00
2019-01-18T20:22:10.053Z,60064.42
2019-01-18T20:25:15.795Z,60065.66
2019-01-18T20:31:34.986Z,60067.25
2019-01-18T20:34:42.535Z,60068.31
2019-01-18T20:41:02.238Z,60063.37
2019-01-18T20:43:50.034Z,60068.49
2019-01-18T20:46:57.590Z,60070.97
2019-01-18T20:50:03.316Z,60071.68
2019-01-18T20:53:10.856Z,60064.62
2019-01-18T20:56:16.584Z,60075.96
2019-01-18T20:59:22.325Z,60057.71
2019-01-18T21:05:28.591Z,60063.37
2019-01-18T21:08:34.345Z,60063.00
2019-01-18T21:23:43.573Z,60081.96
2019-01-18T21:26:49.287Z,60058.95
2019-01-18T21:33:09.008Z,60056.34
2019-01-18T21:39:15.528Z,60052.61
2019-01-18T21:42:23.073Z,60059.32
2019-01-18T21:45:28.779Z,60070.62
2019-01-18T21:48:34.522Z,60067.41
2019-01-18T21:51:40.242Z,60063.00
2019-01-18T21:54:47.782Z,60054.74
2019-01-18T21:57:53.530Z,60050.18
2019-01-18T22:00:59.255Z,60037.85
2019-01-18T22:07:19.043Z,60021.64
2019-01-18T22:10:26.587Z,60021.49
2019-01-18T22:16:45.768Z,60017.59
2019-01-18T22:19:51.499Z,60026.65
2019-01-18T22:22:57.244Z,60015.67
2019-01-18T22:32:17.002Z,60032.14
2019-01-18T22:38:23.485Z,60005.64
2019-01-18T22:41:29.224Z,60004.25
2019-01-18T22:44:34.960Z,60024.64
2019-01-18T22:50:54.135Z,60033.85
2019-01-18T23:00:01.788Z,60014.98
2019-01-18T23:03:09.333Z,60043.49
2019-01-18T23:06:15.083Z,60056.31
2019-01-18T23:09:22.635Z,60031.16
2019-01-18T23:12:28.364Z,60015.67
2019-01-18T23:15:34.102Z,60031.87
2019-01-18T23:27:22.981Z,60024.46
2019-01-18T23:30:28.741Z,60019.01
2019-01-18T23:36:17.563Z,60009.52
2019-01-18T23:39:23.308Z,60006.00
2019-01-18T23:45:24.784Z,59997.06
2019-01-18T23:51:31.414Z,60008.75
